Time;durP1;ratioP1;P1;durP2;ratioP2;P2;SDS_P1;SDS_P2;PMS_P1;PMS_P2;Temp;Humidity;BMP_temperature;BMP_pressure;BME280_temperature;BME280_humidity;BME280_pressure;Samples;Min_cycle;Max_cycle;Signal;HPM_P1;HPM_P2
2022/06/15 00:01:51;;;;;;;11.10;5.72;;;;;;;12.71;82.55;98736.31;5119010;27;20052;-64
2022/06/15 00:04:16;;;;;;;7.85;4.30;;;;;;;12.67;82.13;98729.56;5118391;27;20041;-64
2022/06/15 00:06:42;;;;;;;7.50;4.53;;;;;;;12.71;82.61;98738.97;5099928;27;20054;-64
2022/06/15 00:09:08;;;;;;;10.02;5.47;;;;;;;12.70;82.67;98735.47;5118356;27;20039;-63
2022/06/15 00:11:40;;;;;;;11.05;6.05;;;;;;;12.62;82.66;98732.69;5118445;27;20366;-63
2022/06/15 00:14:20;;;;;;;14.40;5.05;;;;;;;12.65;82.51;98734.19;5118312;27;20038;-65
2022/06/15 00:16:45;;;;;;;6.03;4.80;;;;;;;12.62;81.59;98730.00;5118217;27;20062;-65
2022/06/15 00:19:11;;;;;;;5.45;4.03;;;;;;;12.58;82.22;98731.28;5118279;27;20083;-63
2022/06/15 00:21:36;;;;;;;7.93;4.30;;;;;;;12.65;82.22;98726.19;5099774;27;20086;-62
2022/06/15 00:24:01;;;;;;;9.70;5.25;;;;;;;12.62;81.66;98729.16;5118222;27;20095;-62
2022/06/15 00:26:26;;;;;;;6.53;4.55;;;;;;;12.59;81.49;98732.97;5099696;27;20030;-62
2022/06/15 00:28:51;;;;;;;6.20;4.55;;;;;;;12.58;81.07;98733.09;5118542;27;20107;-62
2022/06/15 00:31:16;;;;;;;6.45;4.22;;;;;;;12.52;81.18;98739.03;5118868;27;20038;-62
2022/06/15 00:33:41;;;;;;;8.10;3.80;;;;;;;12.46;81.64;98732.41;5100038;27;20052;-64
2022/06/15 00:36:10;;;;;;;8.05;3.80;;;;;;;12.49;81.47;98737.50;5099828;27;20123;-62
2022/06/15 00:38:44;;;;;;;5.95;3.95;;;;;;;12.52;81.29;98739.88;5117198;27;20118;-62
2022/06/15 00:41:12;;;;;;;8.77;4.93;;;;;;;12.48;81.23;98738.47;5119208;27;20087;-62
2022/06/15 00:43:39;;;;;;;11.40;4.90;;;;;;;12.43;81.06;98739.88;5097308;27;20043;-66
2022/06/15 00:46:29;;;;;;;9.27;4.93;;;;;;;12.45;81.99;98738.75;5113826;27;20043;-64
2022/06/15 00:48:59;;;;;;;9.02;4.60;;;;;;;12.43;81.56;98735.38;5100967;27;20125;-65
2022/06/15 00:51:25;;;;;;;7.28;4.40;;;;;;;12.39;81.66;98738.50;5114773;27;20500;-67
2022/06/15 00:53:50;;;;;;;8.98;5.05;;;;;;;12.36;81.03;98744.97;5103464;27;20043;-64
2022/06/15 00:56:16;;;;;;;7.72;4.97;;;;;;;12.42;81.28;98746.19;5108644;27;20049;-65
2022/06/15 00:58:49;;;;;;;8.68;5.00;;;;;;;12.39;81.24;98742.00;5124603;27;20046;-66
2022/06/15 01:01:14;;;;;;;9.38;4.07;;;;;;;12.30;81.32;98741.00;5127256;27;20065;-66
2022/06/15 01:03:39;;;;;;;6.82;4.35;;;;;;;12.31;81.18;98742.69;5088193;27;20141;-68
2022/06/15 01:06:05;;;;;;;5.63;3.70;;;;;;;12.26;81.38;98741.47;5085595;27;20442;-67
2022/06/15 01:08:33;;;;;;;6.40;3.90;;;;;;;12.27;81.41;98740.47;5101464;27;20060;-67
2022/06/15 01:11:21;;;;;;;8.80;3.95;;;;;;;12.33;81.23;98748.75;5119504;27;20043;-65
2022/06/15 01:14:07;;;;;;;8.70;3.90;;;;;;;12.34;81.74;98745.09;5100174;27;20515;-66
2022/06/15 01:16:38;;;;;;;8.80;3.97;;;;;;;12.30;81.50;98745.53;5123946;27;20137;-68
2022/06/15 01:19:18;;;;;;;7.25;3.90;;;;;;;12.24;81.08;98746.94;5087778;27;20046;-67
2022/06/15 01:22:24;;;;;;;6.03;3.85;;;;;;;12.31;81.88;98747.19;5101568;27;20043;-64
2022/06/15 01:25:12;;;;;;;6.57;3.92;;;;;;;12.31;81.27;98745.38;5124097;27;20058;-67
2022/06/15 01:27:49;;;;;;;7.70;4.18;;;;;;;12.34;80.55;98745.09;5112777;27;20042;-64
2022/06/15 01:30:38;;;;;;;3.72;3.30;;;;;;;12.22;81.09;98745.38;5113276;27;20057;-64
2022/06/15 01:33:24;;;;;;;11.02;4.05;;;;;;;12.20;80.95;98742.00;5128375;27;20065;-63
2022/06/15 01:36:18;;;;;;;3.83;3.40;;;;;;;12.23;80.96;98739.91;5127174;27;20106;-66
2022/06/15 01:39:03;;;;;;;6.55;3.85;;;;;;;12.32;80.42;98743.53;5124326;27;20046;-65
2022/06/15 01:41:36;;;;;;;;;;;;;;;12.41;80.39;98733.84;5097848;27;20125;-68
2022/06/15 01:44:13;;;;;;;5.15;3.25;;;;;;;12.34;80.35;98741.59;5116507;27;19919;-70
2022/06/15 01:46:42;;;;;;;4.28;3.72;;;;;;;12.26;79.64;98736.97;5094279;27;20096;-71
2022/06/15 01:49:10;;;;;;;5.85;3.30;;;;;;;12.29;79.12;98736.69;5079675;27;20550;-70
2022/06/15 01:51:40;;;;;;;3.65;3.05;;;;;;;12.37;78.87;98738.63;5082423;27;20034;-68
2022/06/15 01:54:23;;;;;;;10.30;4.32;;;;;;;12.43;78.67;98746.06;5100200;27;20093;-69
2022/06/15 01:56:51;;;;;;;6.75;3.20;;;;;;;12.40;77.95;98740.19;5100889;27;20062;-68
2022/06/15 01:59:24;;;;;;;4.28;2.78;;;;;;;12.46;77.63;98735.09;5099186;27;20042;-70
2022/06/15 02:02:23;;;;;;;5.80;3.25;;;;;;;12.55;77.81;98744.06;5097532;27;20050;-69
2022/06/15 02:05:03;;;;;;;4.45;3.10;;;;;;;12.60;77.19;98736.47;5098621;27;20045;-71
2022/06/15 02:07:31;;;;;;;5.05;3.35;;;;;;;12.63;77.64;98741.53;5101640;27;20114;-67
2022/06/15 02:10:03;;;;;;;5.53;3.05;;;;;;;12.66;77.22;98747.44;5098015;27;20043;-66
2022/06/15 02:12:43;;;;;;;5.35;3.30;;;;;;;12.64;76.58;98738.69;5063226;27;20042;-66
2022/06/15 02:15:12;;;;;;;6.97;3.20;;;;;;;12.69;76.66;98747.16;5097697;27;20515;-67
2022/06/15 02:17:42;;;;;;;4.97;3.00;;;;;;;12.81;76.44;98745.16;5097354;27;20050;-67
2022/06/15 02:20:12;;;;;;;3.80;2.70;;;;;;;12.90;75.54;98749.63;5097754;27;20117;-67
2022/06/15 02:22:42;;;;;;;6.03;3.33;;;;;;;12.83;75.00;98739.66;5080761;27;20049;-64
2022/06/15 02:25:13;;;;;;;5.45;3.08;;;;;;;12.90;74.98;98740.75;5116404;27;20054;-65
2022/06/15 02:27:40;;;;;;;10.05;3.45;;;;;;;12.84;74.35;98742.19;5097906;27;20046;-65
2022/06/15 02:30:12;;;;;;;5.43;2.97;;;;;;;12.93;73.97;98741.31;5093392;27;20078;-64
2022/06/15 02:32:37;;;;;;;6.82;3.10;;;;;;;13.02;73.79;98743.09;5081133;27;20412;-66
2022/06/15 02:35:03;;;;;;;5.10;2.92;;;;;;;13.13;74.13;98744.75;5118724;27;20053;-67
2022/06/15 02:37:28;;;;;;;4.45;2.78;;;;;;;13.19;72.46;98740.69;5098955;27;20455;-69
2022/06/15 02:39:53;;;;;;;5.70;2.95;;;;;;;13.30;73.38;98744.00;5089840;28;20459;-74
2022/06/15 02:42:27;;;;;;;3.53;2.47;;;;;;;13.39;73.16;98745.78;5064624;28;20039;-68
2022/06/15 02:45:02;;;;;;;3.80;2.05;;;;;;;13.44;72.97;98746.16;5081952;28;20046;-68
2022/06/15 02:47:31;;;;;;;4.03;3.15;;;;;;;13.50;72.02;98746.56;5064694;28;20070;-69
2022/06/15 02:49:58;;;;;;;5.60;2.33;;;;;;;13.49;71.87;98742.19;5071671;27;20458;-67
2022/06/15 02:52:28;;;;;;;12.55;4.50;;;;;;;13.48;71.02;98737.84;5098258;27;20456;-67
2022/06/15 02:54:55;;;;;;;4.28;2.92;;;;;;;13.56;71.07;98740.59;5078352;27;20111;-68
2022/06/15 02:57:24;;;;;;;3.00;2.67;;;;;;;13.59;70.67;98743.81;5097881;27;20042;-66
2022/06/15 02:59:50;;;;;;;3.95;2.60;;;;;;;13.63;70.75;98752.41;5101140;27;20102;-67
2022/06/15 03:02:19;;;;;;;7.53;3.15;;;;;;;13.66;70.46;98746.72;5084785;27;20038;-65
2022/06/15 03:04:48;;;;;;;4.72;2.97;;;;;;;13.70;70.46;98753.47;5101720;27;20042;-63
2022/06/15 03:07:14;;;;;;;4.10;2.88;;;;;;;13.75;69.97;98762.75;5099879;27;20042;-70
2022/06/15 03:09:40;;;;;;;4.93;3.00;;;;;;;13.79;69.77;98750.72;5097017;27;20038;-67
2022/06/15 03:12:08;;;;;;;6.00;3.05;;;;;;;13.86;68.99;98748.31;5080142;27;20073;-68
2022/06/15 03:14:35;;;;;;;6.60;2.67;;;;;;;13.96;68.94;98743.72;5086341;27;20053;-67
2022/06/15 03:17:02;;;;;;;3.85;2.78;;;;;;;14.00;68.60;98755.78;5101754;27;20061;-66
2022/06/15 03:19:42;;;;;;;4.63;2.65;;;;;;;14.03;68.55;98760.00;5118617;27;20078;-65
2022/06/15 03:22:07;;;;;;;5.70;2.40;;;;;;;13.96;68.25;98748.22;5083081;27;20119;-64
2022/06/15 03:24:36;;;;;;;4.85;3.25;;;;;;;14.08;67.99;98771.97;5096731;27;20046;-65
2022/06/15 03:27:04;;;;;;;5.22;3.42;;;;;;;14.22;67.69;98762.53;5101358;27;20155;-65
2022/06/15 03:29:30;;;;;;;5.68;2.70;;;;;;;14.23;67.39;98763.38;5084268;27;20038;-66
2022/06/15 03:32:00;;;;;;;5.85;3.08;;;;;;;14.39;67.47;98769.75;5102945;27;20065;-65
2022/06/15 03:34:27;;;;;;;4.28;2.75;;;;;;;14.40;66.56;98765.25;5083593;27;20070;-68
2022/06/15 03:36:52;;;;;;;3.45;2.72;;;;;;;14.40;66.10;98763.41;5100673;27;20138;-71
2022/06/15 03:39:17;;;;;;;11.30;3.13;;;;;;;14.46;66.19;98762.75;5118841;27;20043;-67
2022/06/15 03:41:43;;;;;;;4.63;2.60;;;;;;;14.54;65.84;98762.00;5100683;27;20041;-69
2022/06/15 03:44:10;;;;;;;4.97;2.33;;;;;;;14.79;65.53;98769.22;5104143;27;20474;-66
2022/06/15 03:46:37;;;;;;;5.68;3.08;;;;;;;14.64;64.82;98757.38;5087959;27;20042;-67
2022/06/15 03:49:09;;;;;;;4.80;2.03;;;;;;;14.58;64.46;98763.38;5103060;27;20119;-69
2022/06/15 03:51:34;;;;;;;6.68;2.80;;;;;;;14.53;64.75;98757.63;5102100;27;20043;-68
2022/06/15 03:54:01;;;;;;;6.45;2.75;;;;;;;14.49;64.81;98758.94;5100852;27;20062;-66
2022/06/15 03:56:45;;;;;;;3.78;2.60;;;;;;;14.70;64.69;98754.06;5083285;27;20516;-66
2022/06/15 03:59:14;;;;;;;2.83;2.45;;;;;;;14.68;64.43;98761.41;5067904;27;20102;-65
2022/06/15 04:01:42;;;;;;;4.33;2.67;;;;;;;14.71;64.30;98753.06;5108188;27;20125;-64
2022/06/15 04:04:09;;;;;;;5.28;3.05;;;;;;;14.74;64.08;98754.59;5107184;27;20420;-64
2022/06/15 04:06:34;;;;;;;4.07;2.50;;;;;;;14.74;63.98;98759.97;5110703;27;20046;-65
2022/06/15 04:09:00;;;;;;;3.33;2.35;;;;;;;14.87;64.02;98761.22;5107612;27;20044;-65
2022/06/15 04:14:22;;;;;;;4.53;2.60;;;;;;;15.11;62.45;98770.44;5099946;27;20485;-66
2022/06/15 04:16:58;;;;;;;7.20;2.63;;;;;;;15.10;62.39;98764.22;5099821;27;20078;-65
2022/06/15 04:19:42;;;;;;;6.10;3.00;;;;;;;15.24;62.90;98760.91;5099820;27;20047;-65
2022/06/15 04:22:09;;;;;;;5.65;2.70;;;;;;;15.41;62.55;98767.22;5100232;27;20497;-65
2022/06/15 04:24:36;;;;;;;3.08;2.13;;;;;;;15.45;61.60;98768.59;5066425;27;20137;-65
2022/06/15 04:27:02;;;;;;;10.13;2.97;;;;;;;15.40;61.65;98767.38;5100905;27;20053;-65
2022/06/15 04:29:27;;;;;;;7.30;2.65;;;;;;;15.43;61.74;98767.91;5103242;27;20051;-66
2022/06/15 04:31:54;;;;;;;5.45;2.75;;;;;;;15.42;61.68;98763.53;5101884;27;20066;-66
2022/06/15 04:34:19;;;;;;;5.82;2.33;;;;;;;15.73;61.35;98760.31;5100539;27;20415;-65
2022/06/15 04:36:45;;;;;;;3.22;1.90;;;;;;;16.01;60.13;98761.72;5100435;27;20508;-66
2022/06/15 04:39:12;;;;;;;5.50;2.08;;;;;;;16.15;59.07;98777.19;5100680;27;20081;-64
2022/06/15 04:41:41;;;;;;;3.55;2.30;;;;;;;16.25;58.36;98774.38;5084361;27;20531;-64
2022/06/15 04:44:08;;;;;;;5.40;2.50;;;;;;;16.24;58.28;98776.22;5100275;27;20039;-67
2022/06/15 04:46:35;;;;;;;2.90;2.22;;;;;;;16.26;57.74;98779.56;5100206;27;20038;-66
2022/06/15 04:49:00;;;;;;;4.25;2.45;;;;;;;16.44;57.98;98773.19;5100688;27;20050;-65
2022/06/15 04:51:39;;;;;;;;;;;;;;;16.71;58.04;98770.16;5084612;27;20131;-65
2022/06/15 04:54:09;;;;;;;3.22;2.20;;;;;;;16.73;56.87;98789.69;5100778;27;19919;-64
2022/06/15 04:56:38;;;;;;;;;;;;;;;16.72;56.85;98777.22;5084502;27;20051;-63
2022/06/15 04:59:07;;;;;;;4.32;2.75;;;;;;;16.57;56.46;98770.84;5100168;27;19921;-64
2022/06/15 05:01:32;;;;;;;2.85;2.28;;;;;;;16.70;56.19;98781.97;5099981;27;20050;-64
2022/06/15 05:03:58;;;;;;;3.80;2.33;;;;;;;16.59;56.20;98775.03;5099013;27;20051;-65
2022/06/15 05:06:32;;;;;;;4.13;2.55;;;;;;;16.51;57.32;98782.25;5081778;27;20044;-65
2022/06/15 05:08:57;;;;;;;2.63;2.08;;;;;;;16.22;56.90;98775.53;5118178;27;20035;-64
2022/06/15 05:11:23;;;;;;;4.60;2.13;;;;;;;16.01;57.89;98780.53;5082673;27;20043;-64
2022/06/15 05:13:49;;;;;;;2.13;1.80;;;;;;;15.90;57.84;98765.56;5099918;27;20489;-64
2022/06/15 05:16:14;;;;;;;6.70;3.13;;;;;;;16.23;57.71;98782.59;5081857;27;20053;-65
2022/06/15 05:18:39;;;;;;;5.10;1.83;;;;;;;16.60;56.58;98770.47;5081939;27;20043;-65
2022/06/15 05:21:11;;;;;;;2.45;1.85;;;;;;;16.68;55.92;98776.75;5098624;27;20070;-63
2022/06/15 05:23:36;;;;;;;5.18;2.45;;;;;;;16.94;54.96;98781.91;5117842;27;20125;-63
2022/06/15 05:26:10;;;;;;;;;;;;;;;17.17;54.47;98781.19;5099674;27;20073;-68
2022/06/15 05:28:39;;;;;;;3.03;1.83;;;;;;;17.45;54.27;98777.06;5102610;27;19914;-67
2022/06/15 05:31:10;;;;;;;5.47;1.92;;;;;;;17.99;52.88;98788.81;5104064;27;20039;-69
2022/06/15 05:33:38;;;;;;;2.05;1.83;;;;;;;18.00;52.17;98787.78;5104902;27;20045;-67
2022/06/15 05:36:10;;;;;;;8.93;2.20;;;;;;;17.85;51.69;98794.09;5104446;27;20053;-66
2022/06/15 05:38:38;;;;;;;4.05;1.80;;;;;;;17.91;51.80;98801.50;5106673;27;20066;-67
2022/06/15 05:41:03;;;;;;;6.80;1.88;;;;;;;17.71;51.85;98793.00;5104690;27;20038;-64
2022/06/15 05:43:32;;;;;;;4.82;2.33;;;;;;;17.26;53.12;98797.19;5102231;27;20045;-63
2022/06/15 05:45:57;;;;;;;4.15;2.03;;;;;;;16.99;54.24;98795.72;5085066;27;20046;-64
2022/06/15 05:48:22;;;;;;;4.35;1.85;;;;;;;16.86;55.04;98795.41;5118462;27;20126;-64
2022/06/15 05:50:48;;;;;;;4.05;2.17;;;;;;;16.89;55.22;98786.16;5099582;27;20046;-64
2022/06/15 05:53:17;;;;;;;6.63;2.40;;;;;;;16.90;54.93;98791.38;5098773;27;20039;-64
2022/06/15 05:55:41;;;;;;;4.70;2.08;;;;;;;16.78;54.58;98789.19;5097726;27;20057;-64
2022/06/15 05:58:06;;;;;;;5.22;2.42;;;;;;;16.53;54.97;98789.16;5117466;27;20035;-63
2022/06/15 06:00:32;;;;;;;5.50;2.63;;;;;;;16.55;54.74;98786.31;5097430;27;20515;-63
2022/06/15 06:02:56;;;;;;;4.07;1.85;;;;;;;16.84;54.57;98796.56;5081067;27;20531;-64
2022/06/15 06:05:22;;;;;;;4.30;1.77;;;;;;;17.06;53.75;98793.16;5080538;27;20072;-64
2022/06/15 06:07:47;;;;;;;13.85;7.18;;;;;;;16.97;54.17;98792.34;5126089;27;20034;-63
2022/06/15 06:10:12;;;;;;;3.58;2.25;;;;;;;16.92;53.99;98789.34;5114714;27;20431;-71
2022/06/15 06:12:37;;;;;;;4.10;2.20;;;;;;;16.77;53.81;98796.41;5115506;27;20114;-65
2022/06/15 06:15:03;;;;;;;3.50;2.15;;;;;;;16.73;54.02;98800.44;5097506;27;20038;-64
2022/06/15 06:17:28;;;;;;;12.50;2.58;;;;;;;16.67;54.25;98791.22;5098039;27;20085;-63
2022/06/15 06:19:53;;;;;;;5.60;1.88;;;;;;;16.78;54.29;98792.72;5116089;27;20042;-64
2022/06/15 06:22:18;;;;;;;4.43;2.00;;;;;;;17.54;52.29;98797.59;5115139;27;20045;-64
2022/06/15 06:24:42;;;;;;;8.48;2.60;;;;;;;18.10;50.34;98784.84;5132128;27;20046;-65
2022/06/15 06:27:12;;;;;;;2.40;2.08;;;;;;;18.50;48.63;98795.38;5116130;27;20119;-64
2022/06/15 06:29:37;;;;;;;2.00;1.63;;;;;;;19.08;47.70;98796.56;5115431;27;20446;-63
2022/06/15 06:32:03;;;;;;;2.67;2.00;;;;;;;19.93;46.66;98791.53;5116843;27;20049;-65
2022/06/15 06:34:29;;;;;;;2.10;1.80;;;;;;;20.76;43.24;98784.72;5113613;27;20130;-64
2022/06/15 06:36:54;;;;;;;3.30;2.30;;;;;;;20.87;43.29;98791.47;5115397;27;20471;-65
2022/06/15 06:39:23;;;;;;;10.20;2.20;;;;;;;20.95;42.88;98796.75;5115892;27;20482;-67
2022/06/15 06:41:48;;;;;;;3.90;1.92;;;;;;;20.79;43.35;98792.44;5114590;27;20035;-66
2022/06/15 06:44:13;;;;;;;3.80;2.17;;;;;;;20.93;42.65;98796.09;5115806;27;20049;-66
2022/06/15 06:46:44;;;;;;;3.67;1.70;;;;;;;20.62;43.61;98807.31;5116337;27;20471;-67
2022/06/15 06:49:09;;;;;;;2.55;1.83;;;;;;;20.24;43.80;98799.38;5120818;27;20074;-67
2022/06/15 06:51:35;;;;;;;2.95;2.50;;;;;;;19.71;45.79;98797.91;5120330;27;20098;-67
2022/06/15 06:54:00;;;;;;;3.55;1.88;;;;;;;19.82;45.45;98797.44;5119526;27;20035;-67
2022/06/15 06:56:28;;;;;;;5.53;1.95;;;;;;;20.71;44.55;98789.03;5100447;27;20039;-66
2022/06/15 06:58:53;;;;;;;4.80;2.08;;;;;;;22.31;40.80;98796.91;5119478;27;20054;-65
2022/06/15 07:01:17;;;;;;;2.42;2.00;;;;;;;24.10;36.75;98795.69;5112536;27;20516;-65
2022/06/15 07:03:42;;;;;;;2.65;1.58;;;;;;;24.61;35.85;98786.59;5119133;27;20031;-66
2022/06/15 07:06:09;;;;;;;2.58;1.80;;;;;;;24.26;35.36;98801.75;5119043;27;20038;-65
2022/06/15 07:08:37;;;;;;;4.45;1.70;;;;;;;23.58;36.84;98801.34;5097375;27;20039;-66
2022/06/15 07:11:07;;;;;;;2.60;1.88;;;;;;;22.82;37.61;98809.94;5080661;27;20043;-65
2022/06/15 07:13:32;;;;;;;1.70;1.60;;;;;;;22.76;39.30;98802.66;5112727;27;20035;-65
2022/06/15 07:15:57;;;;;;;4.63;2.63;;;;;;;23.37;37.50;98799.66;5113338;27;20061;-68
2022/06/15 07:18:21;;;;;;;7.45;2.08;;;;;;;23.42;37.04;98800.72;5121494;27;20038;-65
2022/06/15 07:20:46;;;;;;;3.53;2.35;;;;;;;23.13;37.96;98804.75;5127854;27;20043;-68
2022/06/15 07:23:11;;;;;;;2.10;1.50;;;;;;;22.68;38.93;98821.84;5120015;27;20055;-68
2022/06/15 07:25:36;;;;;;;2.10;1.33;;;;;;;22.20;39.45;98818.38;5120945;27;20153;-67
2022/06/15 07:28:02;;;;;;;4.40;1.92;;;;;;;21.74;40.60;98811.69;5119407;27;20087;-68
2022/06/15 07:30:28;;;;;;;4.28;1.73;;;;;;;21.52;40.89;98822.81;5120234;27;20046;-67
2022/06/15 07:32:53;;;;;;;2.13;1.92;;;;;;;22.53;39.54;98822.00;5100510;27;20042;-67
2022/06/15 07:35:30;;;;;;;8.35;2.40;;;;;;;24.66;36.61;98819.50;5119720;27;20038;-67
2022/06/15 07:37:56;;;;;;;4.05;2.33;;;;;;;25.90;34.18;98821.34;5121656;27;20327;-68
2022/06/15 07:40:23;;;;;;;3.22;2.10;;;;;;;27.06;32.10;98826.50;5101808;27;20091;-66
2022/06/15 07:42:49;;;;;;;2.63;1.98;;;;;;;28.24;29.30;98798.81;5121046;27;20102;-67
2022/06/15 07:45:16;;;;;;;4.00;2.10;;;;;;;30.81;27.25;98832.41;5100874;27;20034;-67
2022/06/15 07:50:24;;;;;;;2.08;1.98;;;;;;;33.05;23.50;98827.06;5090911;27;20121;-66
2022/06/15 07:52:51;;;;;;;2.17;2.08;;;;;;;33.37;22.74;98838.72;5118544;27;20138;-67
2022/06/15 07:55:20;;;;;;;2.45;2.25;;;;;;;33.58;22.88;98845.03;5103567;27;20046;-68
2022/06/15 07:57:46;;;;;;;4.90;2.78;;;;;;;31.33;23.83;98844.47;5122403;27;20050;-67
2022/06/15 08:00:12;;;;;;;4.57;2.63;;;;;;;29.67;26.32;98840.59;5119576;27;20569;-70
2022/06/15 08:02:40;;;;;;;2.30;2.13;;;;;;;28.77;27.08;98834.13;5120622;27;20050;-68
2022/06/15 08:05:06;;;;;;;2.05;1.95;;;;;;;28.51;27.34;98835.53;5120151;27;20412;-68
2022/06/15 08:07:31;;;;;;;4.05;2.90;;;;;;;27.87;28.77;98831.19;5100906;27;20067;-68
2022/06/15 08:09:55;;;;;;;4.82;2.72;;;;;;;26.90;28.89;98824.41;5119343;27;20070;-67
2022/06/15 08:12:23;;;;;;;4.72;2.08;;;;;;;25.47;31.49;98830.41;5101386;27;20082;-68
2022/06/15 08:14:51;;;;;;;4.18;2.15;;;;;;;24.71;33.52;98833.31;5120592;27;20039;-67
2022/06/15 08:17:22;;;;;;;4.60;2.20;;;;;;;22.99;36.26;98845.72;5087491;27;20057;-68
2022/06/15 08:19:51;;;;;;;2.70;2.10;;;;;;;21.81;38.79;98843.44;5122892;27;20050;-68
2022/06/15 08:22:17;;;;;;;1.60;1.50;;;;;;;20.26;42.46;98847.91;5123739;27;20038;-67
2022/06/15 08:24:44;;;;;;;4.07;2.17;;;;;;;19.74;44.46;98840.81;5126199;27;20167;-65
2022/06/15 08:27:11;;;;;;;3.78;1.55;;;;;;;19.74;43.09;98848.94;5125027;27;20505;-66
2022/06/15 08:29:38;;;;;;;2.03;1.92;;;;;;;19.43;44.26;98840.94;5123672;27;20041;-65
2022/06/15 08:32:03;;;;;;;6.35;2.53;;;;;;;20.31;43.05;98842.78;5127004;27;20038;-65
2022/06/15 08:34:29;;;;;;;4.60;2.03;;;;;;;22.48;39.30;98837.25;5119776;27;20634;-65
2022/06/15 08:36:54;;;;;;;5.53;2.20;;;;;;;23.53;36.73;98849.06;5099741;27;20503;-67
2022/06/15 08:39:19;;;;;;;4.10;3.00;;;;;;;24.64;35.19;98845.31;5117941;27;20041;-65
2022/06/15 08:42:02;;;;;;;6.10;2.17;;;;;;;26.91;31.50;98848.81;5116978;27;20034;-64
2022/06/15 08:44:51;;;;;;;3.63;2.22;;;;;;;29.91;26.63;98847.53;5117283;27;20037;-65
2022/06/15 08:47:34;;;;;;;2.33;2.10;;;;;;;29.34;27.37;98849.66;5107629;27;20041;-66
2022/06/15 08:50:13;;;;;;;6.67;3.10;;;;;;;28.09;29.13;98845.91;5118023;27;20372;-66
2022/06/15 08:52:41;;;;;;;7.18;1.90;;;;;;;26.72;30.41;98858.16;5097394;27;20454;-66
2022/06/15 08:55:24;;;;;;;4.07;2.10;;;;;;;25.17;32.25;98852.06;5117373;27;20074;-67
2022/06/15 08:57:55;;;;;;;3.15;2.25;;;;;;;23.75;34.17;98855.09;5117277;27;20035;-67
2022/06/15 09:00:33;;;;;;;4.97;2.42;;;;;;;22.83;35.47;98854.28;5126896;27;20585;-67
2022/06/15 09:03:18;;;;;;;2.75;1.60;;;;;;;22.57;36.29;98846.91;5119440;27;20044;-68
2022/06/15 09:06:14;;;;;;;4.43;2.35;;;;;;;25.11;33.56;98831.16;5092636;27;20043;-68
2022/06/15 09:09:00;;;;;;;4.20;2.40;;;;;;;28.61;28.39;98853.25;5116229;27;20045;-66
2022/06/15 09:11:34;;;;;;;2.85;2.55;;;;;;;31.08;25.75;98841.47;5117648;27;20125;-67
2022/06/15 09:14:05;;;;;;;;;;;;;;;33.34;22.67;98843.94;5119475;27;20062;-68
2022/06/15 09:16:51;;;;;;;5.47;2.88;;;;;;;34.70;23.30;98842.75;5098877;27;19926;-67
2022/06/15 09:19:22;;;;;;;2.72;2.53;;;;;;;32.68;22.99;98847.41;5117165;27;20414;-67
2022/06/15 09:21:57;;;;;;;2.63;2.15;;;;;;;30.72;25.50;98865.06;5116474;27;20374;-69
2022/06/15 09:24:38;;;;;;;6.90;2.90;;;;;;;28.69;28.01;98850.94;5117954;27;20189;-68
2022/06/15 09:27:11;;;;;;;4.30;2.30;;;;;;;26.92;29.35;98845.03;5118648;27;20138;-66
2022/06/15 09:29:45;;;;;;;3.58;2.65;;;;;;;26.12;30.96;98863.53;5119706;27;20091;-72
2022/06/15 09:32:22;;;;;;;4.82;2.40;;;;;;;25.27;33.01;98862.50;5118701;27;20046;-66
2022/06/15 09:35:20;;;;;;;5.38;2.03;;;;;;;25.26;32.20;98860.84;5118020;27;20042;-65
2022/06/15 09:37:50;;;;;;;3.08;2.22;;;;;;;25.49;32.14;98866.50;5118478;27;20054;-65
2022/06/15 09:40:15;;;;;;;4.22;2.17;;;;;;;25.79;31.93;98850.25;5124274;27;20373;-66
2022/06/15 09:42:52;;;;;;;7.45;2.10;;;;;;;25.78;31.33;98864.13;5120344;27;20042;-66
2022/06/15 09:45:28;;;;;;;4.55;2.35;;;;;;;25.37;31.59;98841.00;5115796;27;20046;-66
2022/06/15 09:48:02;;;;;;;2.53;1.70;;;;;;;24.93;31.75;98851.03;5116717;27;20070;-67
2022/06/15 09:50:37;;;;;;;2.90;1.70;;;;;;;24.86;32.80;98854.81;5116531;27;20039;-67
2022/06/15 09:53:11;;;;;;;2.20;2.03;;;;;;;26.27;31.73;98864.03;5117209;27;20049;-66
2022/06/15 09:55:36;;;;;;;4.18;2.08;;;;;;;26.42;30.03;98860.88;5103200;27;20050;-67
2022/06/15 09:58:02;;;;;;;1.83;1.73;;;;;;;26.03;30.53;98867.63;5101285;27;20051;-66
2022/06/15 10:00:28;;;;;;;3.47;2.10;;;;;;;25.16;31.87;98872.25;5115204;27;20031;-68
2022/06/15 10:02:59;;;;;;;4.28;2.08;;;;;;;25.28;32.26;98875.91;5116138;27;20066;-69
2022/06/15 10:05:31;;;;;;;8.50;2.80;;;;;;;25.83;31.21;98865.13;5117390;27;20068;-68
2022/06/15 10:07:58;;;;;;;3.90;2.20;;;;;;;26.22;30.84;98865.72;5117163;27;20042;-68
2022/06/15 10:10:27;;;;;;;16.77;2.38;;;;;;;26.93;29.94;98874.06;5119166;27;20035;-67
2022/06/15 10:13:16;;;;;;;2.45;1.95;;;;;;;27.81;27.88;98878.69;5119351;27;20042;-67
2022/06/15 10:15:41;;;;;;;3.92;2.70;;;;;;;27.37;29.00;98874.63;5117643;27;20055;-66
2022/06/15 10:18:29;;;;;;;3.60;2.13;;;;;;;27.81;29.24;98882.28;5116243;27;20064;-68
2022/06/15 10:21:06;;;;;;;3.40;2.00;;;;;;;29.11;27.64;98892.66;5114986;27;20053;-67
2022/06/15 10:24:02;;;;;;;3.22;2.38;;;;;;;28.76;27.74;98883.75;5115672;27;20038;-68
2022/06/15 10:26:32;;;;;;;4.45;2.30;;;;;;;26.90;28.74;98882.69;5115382;27;20127;-67
2022/06/15 10:29:18;;;;;;;4.03;2.88;;;;;;;26.01;30.58;98892.44;5117209;27;20050;-66
2022/06/15 10:32:00;;;;;;;4.15;2.50;;;;;;;25.75;31.65;98887.25;5117976;27;20043;-66
2022/06/15 10:34:28;;;;;;;4.82;2.17;;;;;;;25.32;31.61;98876.28;5118427;27;20389;-66
2022/06/15 10:36:58;;;;;;;3.15;2.20;;;;;;;25.08;31.45;98877.13;5120303;27;20042;-67
2022/06/15 10:39:24;;;;;;;4.68;2.10;;;;;;;24.81;32.21;98901.81;5102485;27;20401;-66
2022/06/15 10:41:49;;;;;;;12.00;3.03;;;;;;;24.27;32.09;98885.13;5118827;27;20047;-66
2022/06/15 10:44:23;;;;;;;2.78;2.20;;;;;;;23.91;33.06;98875.59;5118799;27;20034;-67
2022/06/15 10:46:54;;;;;;;6.60;2.60;;;;;;;22.94;34.55;98883.56;5116828;27;20501;-67
2022/06/15 10:49:20;;;;;;;2.75;2.03;;;;;;;22.81;34.74;98890.66;5097379;27;20523;-67
2022/06/15 10:51:44;;;;;;;5.38;2.42;;;;;;;22.87;34.85;98871.84;5116405;27;20049;-68
2022/06/15 10:54:21;;;;;;;4.03;1.95;;;;;;;22.49;36.46;98885.94;5115348;27;20039;-67
2022/06/15 11:02:43;;;;;;;3.60;1.77;;;;;;;21.89;37.95;98892.97;5115898;27;20042;-68
2022/06/15 11:05:24;;;;;;;4.72;2.08;;;;;;;21.89;37.80;98892.97;5080199;27;20038;-67
2022/06/15 11:07:59;;;;;;;4.53;1.80;;;;;;;21.39;38.30;98891.38;5116235;27;20051;-68
2022/06/15 11:10:27;;;;;;;3.83;1.50;;;;;;;20.73;39.55;98879.91;5114193;27;20049;-66
2022/06/15 11:12:57;;;;;;;3.72;2.08;;;;;;;20.29;41.73;98883.56;5115316;27;20564;-66
2022/06/15 11:18:37;;;;;;;4.47;1.77;;;;;;;20.17;41.44;98895.06;5115699;27;20068;-64
2022/06/15 11:21:14;;;;;;;2.72;1.67;;;;;;;20.33;41.26;98894.00;5114744;27;20042;-64
2022/06/15 11:23:57;;;;;;;2.60;1.80;;;;;;;20.46;41.13;98892.31;5115445;27;20050;-64
2022/06/15 11:26:55;;;;;;;5.18;2.67;;;;;;;20.77;40.28;98886.59;5114267;27;20046;-64
2022/06/15 11:29:43;;;;;;;2.38;1.98;;;;;;;20.70;40.42;98895.69;5114994;27;20048;-65
2022/06/15 11:32:26;;;;;;;2.75;2.50;;;;;;;20.44;41.17;98894.38;5114368;27;20035;-66
2022/06/15 11:35:13;;;;;;;4.63;2.03;;;;;;;20.39;41.44;98899.53;5118474;27;20145;-69
2022/06/15 11:37:47;;;;;;;4.93;1.92;;;;;;;20.36;42.08;98902.63;5100687;27;20035;-67
2022/06/15 11:40:45;;;;;;;6.05;3.00;;;;;;;20.33;42.43;98908.38;5118105;27;20034;-67
2022/06/15 11:43:38;;;;;;;3.30;2.47;;;;;;;20.26;42.38;98905.59;5119853;27;20382;-66
2022/06/15 11:46:09;;;;;;;4.05;2.30;;;;;;;20.22;42.57;98906.16;5093361;27;20058;-64
2022/06/15 11:48:54;;;;;;;7.70;3.30;;;;;;;20.27;42.42;98907.28;5107566;27;20043;-65
2022/06/15 11:51:28;;;;;;;7.13;2.33;;;;;;;20.12;42.53;98909.16;5107928;27;20046;-64
2022/06/15 11:54:30;;;;;;;3.28;1.92;;;;;;;20.27;42.49;98917.25;5109819;27;20035;-67
2022/06/15 11:57:19;;;;;;;3.83;1.90;;;;;;;20.29;42.45;98915.22;5085689;27;20389;-64
2022/06/15 11:59:52;;;;;;;5.30;2.38;;;;;;;20.49;42.34;98920.88;5105783;27;20034;-65
2022/06/15 12:02:20;;;;;;;7.65;2.85;;;;;;;20.79;41.45;98908.09;5090603;27;20046;-65
2022/06/15 12:05:03;;;;;;;7.90;2.95;;;;;;;21.14;41.16;98903.63;5118962;27;20062;-66
2022/06/15 12:07:50;;;;;;;5.28;2.50;;;;;;;20.97;41.13;98908.50;5118788;27;20064;-65